^^
Station Historical Data
Daily Summary for May 14, 2017 Units:  English    Metric   Both
« Previous Day
Next Day »
Daily Weekly Monthly Yearly Custom
  High: Low: Average:
Temperature: 63.7 °F 43.0 °F 52.3 °F
Dew Point: 54.6 °F 41.7 °F 45.7 °F
Humidity: 96% 58% 79%
Wind Speed: 7.0mph 0.0mph 2mph
Wind Gust: 17.0mph - -
Wind- - SW
Pressure: 29.79 in 29.58 in -
Precipitation: 0.26 in    
Historical Graphs
 
 
Tabular Data for May 14, 2017
Time Temperature Dew Point Pressure Wind Wind Speed Wind Gust Humidity Rainfall Rate (Hourly) Conditions
00:00 43.4 °F 42.4 °F 29.79 in Calm   3.0 mph 96% 0.01 in -RA
00:15 43.5 °F 42.4 °F 29.78 in NNW 1.0 mph 4.0 mph 96% 0.01 in -RA
00:30 43.7 °F 42.6 °F 29.78 in Calm   8.0 mph 96% 0.02 in -RA
00:45 43.7 °F 42.6 °F 29.77 in NW 2.0 mph 5.0 mph 96% 0.01 in -RA
01:00 43.7 °F 42.6 °F 29.77 in Calm   7.0 mph 96% 0.00 in -RA
02:15 43.7 °F 42.6 °F 29.75 in Calm   5.0 mph 96% 0.01 in -RA
02:30 43.6 °F 42.6 °F 29.74 in NW 2.0 mph 7.0 mph 96% 0.00 in -RA
02:45 43.6 °F 42.5 °F 29.74 in NNW 2.0 mph 6.0 mph 96% 0.00 in -RA
03:00 43.7 °F 42.6 °F 29.73 in North 1.0 mph 7.0 mph 96% 0.00 in -RA
03:15 43.7 °F 42.6 °F 29.73 in NNW 1.0 mph 6.0 mph 96% 0.00 in BKN
03:30 43.7 °F 42.6 °F 29.73 in North 1.0 mph 12.0 mph 96% 0.00 in BKN
03:45 43.6 °F 42.5 °F 29.73 in Calm   4.0 mph 96% 0.00 in BKN
04:00 43.7 °F 42.6 °F 29.73 in NW 2.0 mph 6.0 mph 96% 0.00 in BKN
04:15 43.7 °F 42.7 °F 29.73 in NNW 1.0 mph 8.0 mph 96% 0.00 in SCT
04:30 43.9 °F 42.8 °F 29.72 in NNW 2.0 mph 9.0 mph 96% 0.00 in SCT
04:45 43.9 °F 42.8 °F 29.73 in North 1.0 mph 5.0 mph 96% 0.00 in SCT
05:00 44.0 °F 42.9 °F 29.73 in NNW 5.0 mph 10.0 mph 96% 0.00 in SCT
05:15 43.8 °F 42.5 °F 29.72 in NNE 1.0 mph 12.0 mph 95% 0.00 in SCT
05:30 43.6 °F 42.2 °F 29.72 in NNW 3.0 mph 9.0 mph 95% 0.00 in SCT
05:45 43.2 °F 41.8 °F 29.72 in NNW 2.0 mph 10.0 mph 95% 0.00 in SCT
06:00 43.0 °F 41.7 °F 29.72 in North 3.0 mph 9.0 mph 95% 0.00 in SCT
06:15 43.1 °F 41.8 °F 29.73 in NNW 1.0 mph 12.0 mph 95% 0.00 in SCT
06:30 43.4 °F 42.1 °F 29.73 in NNE 1.0 mph 10.0 mph 95% 0.00 in SCT
06:45 43.7 °F 42.4 °F 29.73 in North 2.0 mph 8.0 mph 95% 0.00 in SCT
07:00 43.7 °F 42.1 °F 29.73 in North 1.0 mph 7.0 mph 94% 0.00 in SCT
07:15 43.9 °F 42.6 °F 29.73 in NE 2.0 mph 6.0 mph 95% 0.00 in FEW
07:30 44.3 °F 42.7 °F 29.73 in NNE 2.0 mph 8.0 mph 94% 0.00 in FEW
07:45 44.9 °F 43.0 °F 29.73 in NNW 2.0 mph 10.0 mph 93% 0.00 in FEW
08:00 45.8 °F 43.6 °F 29.72 in NNW 3.0 mph 8.0 mph 92% 0.00 in FEW
08:15 46.5 °F 43.7 °F 29.73 in NNE 3.0 mph 9.0 mph 90% 0.00 in FEW
08:30 46.9 °F 43.2 °F 29.73 in NNW 6.0 mph 10.0 mph 87% 0.00 in FEW
08:45 47.7 °F 43.7 °F 29.73 in NNW 2.0 mph 12.0 mph 86% 0.00 in FEW
09:00 48.8 °F 43.8 °F 29.73 in NW 2.0 mph 10.0 mph 83% 0.00 in FEW
09:15 49.7 °F 44.4 °F 29.72 in NNW 3.0 mph 9.0 mph 82% 0.00 in FEW
09:30 50.4 °F 44.8 °F 29.72 in NNW 2.0 mph 10.0 mph 81% 0.00 in FEW
09:45 50.4 °F 44.5 °F 29.72 in North 3.0 mph 9.0 mph 80% 0.00 in FEW
10:00 51.3 °F 45.0 °F 29.72 in NNW 5.0 mph 9.0 mph 79% 0.00 in FEW
10:15 53.0 °F 46.0 °F 29.71 in NNW 1.0 mph 9.0 mph 77% 0.00 in FEW
10:30 53.4 °F 45.7 °F 29.70 in NW 2.0 mph 9.0 mph 75% 0.00 in FEW
10:45 54.4 °F 46.3 °F 29.70 in NW 2.0 mph 9.0 mph 74% 0.00 in FEW
11:00 55.4 °F 46.9 °F 29.70 in North 2.0 mph 8.0 mph 73% 0.00 in FEW
11:15 55.6 °F 46.3 °F 29.70 in NNW 3.0 mph 9.0 mph 71% 0.00 in FEW
11:30 57.0 °F 47.3 °F 29.69 in NW 2.0 mph 9.0 mph 70% 0.00 in FEW
11:45 57.5 °F 47.4 °F 29.69 in NNW 3.0 mph 10.0 mph 69% 0.00 in FEW
12:00 58.8 °F 47.0 °F 29.68 in WNW 5.0 mph 9.0 mph 65% 0.00 in FEW
12:15 59.3 °F 47.9 °F 29.67 in West 3.0 mph 9.0 mph 66% 0.00 in SCT
12:30 60.6 °F 47.5 °F 29.67 in WNW 6.0 mph 9.0 mph 62% 0.00 in SCT
12:45 60.6 °F 47.9 °F 29.65 in WNW 3.0 mph 8.0 mph 63% 0.00 in SCT
13:00 61.8 °F 48.2 °F 29.65 in WNW 6.0 mph 9.0 mph 61% 0.00 in SCT
13:15 63.2 °F 49.1 °F 29.64 in WNW 2.0 mph 7.0 mph 60% 0.00 in SCT
13:30 63.7 °F 48.7 °F 29.63 in West 2.0 mph 10.0 mph 58% 0.00 in SCT
13:45 62.7 °F 48.2 °F 29.62 in Calm   7.0 mph 59% 0.00 in SCT
14:00 62.5 °F 48.5 °F 29.62 in NW 2.0 mph 8.0 mph 60% 0.00 in SCT
14:15 62.1 °F 48.5 °F 29.61 in NNW 1.0 mph 5.0 mph 61% 0.00 in SCT
14:30 62.7 °F 48.1 °F 29.61 in NW 3.0 mph 6.0 mph 59% 0.00 in SCT
14:45 62.3 °F 48.2 °F 29.60 in North 2.0 mph 5.0 mph 60% 0.00 in SCT
15:00 58.6 °F 51.1 °F 29.61 in NE 1.0 mph 4.0 mph 76% 0.08 in RA
15:15 56.0 °F 51.2 °F 29.62 in NNE 2.0 mph 4.0 mph 84% 0.11 in -RA
15:30 54.9 °F 50.2 °F 29.60 in Calm   4.0 mph 84% 0.01 in -RA
15:45 56.4 °F 53.2 °F 29.60 in NE 3.0 mph 6.0 mph 89% 0.00 in -RA
16:00 59.1 °F 52.9 °F 29.59 in North 1.0 mph 7.0 mph 80% 0.00 in -RA
16:15 61.2 °F 54.6 °F 29.58 in NNW 1.0 mph 9.0 mph 79% 0.00 in SCT
16:30 60.5 °F 52.5 °F 29.58 in North 2.0 mph 7.0 mph 75% 0.00 in SCT
16:45 60.8 °F 52.1 °F 29.58 in Calm   4.0 mph 73% 0.00 in SCT
17:00 58.5 °F 51.3 °F 29.61 in North 3.0 mph 13.0 mph 77% 0.01 in RA
17:15 56.2 °F 50.1 °F 29.61 in North 5.0 mph 12.0 mph 80% 0.00 in -RA
17:30 55.7 °F 49.6 °F 29.61 in NNW 5.0 mph 12.0 mph 80% 0.00 in -RA
17:45 56.5 °F 50.1 °F 29.61 in North 2.0 mph 10.0 mph 79% 0.00 in -RA
18:00 56.5 °F 49.1 °F 29.61 in Calm   7.0 mph 76% 0.00 in -RA
18:15 55.8 °F 48.7 °F 29.60 in North 1.0 mph 7.0 mph 77% 0.00 in SCT
18:30 55.8 °F 48.3 °F 29.60 in NNE 2.0 mph 6.0 mph 76% 0.00 in SCT
18:45 56.2 °F 48.0 °F 29.59 in NNE 1.0 mph 8.0 mph 74% 0.00 in SCT
19:00 56.8 °F 48.2 °F 29.59 in NNW 1.0 mph 7.0 mph 73% 0.00 in SCT
19:15 58.6 °F 48.8 °F 29.59 in Calm   3.0 mph 70% 0.00 in BKN
19:30 57.9 °F 48.6 °F 29.58 in Calm   4.0 mph 71% 0.00 in BKN
19:45 56.8 °F 48.6 °F 29.59 in Calm   1.0 mph 74% 0.00 in BKN
20:00 55.8 °F 48.0 °F 29.59 in Calm   2.0 mph 75% 0.00 in BKN
20:15 56.1 °F 47.6 °F 29.59 in Calm   2.0 mph 73% 0.00 in BKN
20:30 55.9 °F 47.4 °F 29.59 in Calm   2.0 mph 73% 0.00 in BKN
20:45 55.7 °F 47.2 °F 29.60 in South 5.0 mph 8.0 mph 73% 0.00 in BKN
21:00 56.7 °F 43.8 °F 29.61 in South 7.0 mph 15.0 mph 62% 0.00 in BKN
21:15 56.3 °F 43.8 °F 29.61 in East 1.0 mph 10.0 mph 63% 0.00 in BKN
21:30 55.7 °F 43.3 °F 29.62 in SW 3.0 mph 17.0 mph 63% 0.00 in BKN
21:45 55.1 °F 43.1 °F 29.63 in SSE 2.0 mph 13.0 mph 64% 0.00 in BKN
22:00 54.6 °F 43.1 °F 29.64 in North 3.0 mph 12.0 mph 65% 0.00 in BKN
22:15 54.5 °F 43.4 °F 29.64 in North 1.0 mph 8.0 mph 66% 0.00 in SCT
22:30 54.0 °F 43.7 °F 29.64 in North 1.0 mph 7.0 mph 68% 0.00 in SCT
22:45 53.6 °F 42.9 °F 29.64 in SW 1.0 mph 8.0 mph 67% 0.00 in SCT
23:00 53.2 °F 42.9 °F 29.64 in East 2.0 mph 6.0 mph 68% 0.00 in SCT
23:15 53.0 °F 42.7 °F 29.63 in NNE 1.0 mph 12.0 mph 68% 0.00 in FEW
23:30 52.7 °F 42.8 °F 29.64 in ENE 2.0 mph 9.0 mph 69% 0.00 in FEW
23:45 52.4 °F 42.5 °F 29.64 in WSW 3.0 mph 10.0 mph 69% 0.00 in FEW
TarryTown NY Weather
Compliments of Weather Underground - 1.5 mb